sensor_id;sensor_type;location;lat;lon;timestamp;P1;durP1;ratioP1;P2;durP2;ratioP2
1837;SDS011;918;50.796;6.772;2023-06-19T00:00:01;6.37;;;5.97;;
1837;SDS011;918;50.796;6.772;2023-06-19T00:02:28;5.10;;;4.70;;
1837;SDS011;918;50.796;6.772;2023-06-19T00:04:53;5.97;;;5.67;;
1837;SDS011;918;50.796;6.772;2023-06-19T00:07:18;5.90;;;5.40;;
1837;SDS011;918;50.796;6.772;2023-06-19T00:09:46;5.60;;;5.30;;
1837;SDS011;918;50.796;6.772;2023-06-19T00:12:12;6.40;;;5.87;;
1837;SDS011;918;50.796;6.772;2023-06-19T00:14:37;6.00;;;5.60;;
1837;SDS011;918;50.796;6.772;2023-06-19T00:17:02;6.90;;;6.40;;
1837;SDS011;918;50.796;6.772;2023-06-19T00:19:28;5.90;;;5.40;;
1837;SDS011;918;50.796;6.772;2023-06-19T00:21:53;5.90;;;5.53;;
1837;SDS011;918;50.796;6.772;2023-06-19T00:24:22;6.23;;;5.83;;
1837;SDS011;918;50.796;6.772;2023-06-19T00:26:47;6.17;;;5.60;;
1837;SDS011;918;50.796;6.772;2023-06-19T00:29:13;6.37;;;5.93;;
1837;SDS011;918;50.796;6.772;2023-06-19T00:31:38;6.80;;;6.30;;
1837;SDS011;918;50.796;6.772;2023-06-19T00:34:04;7.30;;;6.80;;
1837;SDS011;918;50.796;6.772;2023-06-19T00:36:29;6.83;;;6.30;;
1837;SDS011;918;50.796;6.772;2023-06-19T00:38:54;6.60;;;6.10;;
1837;SDS011;918;50.796;6.772;2023-06-19T00:41:21;6.30;;;5.90;;
1837;SDS011;918;50.796;6.772;2023-06-19T00:43:47;7.23;;;6.83;;
1837;SDS011;918;50.796;6.772;2023-06-19T00:46:12;6.03;;;5.63;;
1837;SDS011;918;50.796;6.772;2023-06-19T00:48:38;7.10;;;6.60;;
1837;SDS011;918;50.796;6.772;2023-06-19T00:51:03;6.43;;;6.03;;
1837;SDS011;918;50.796;6.772;2023-06-19T00:53:28;7.53;;;6.93;;
1837;SDS011;918;50.796;6.772;2023-06-19T00:55:55;6.97;;;6.47;;
1837;SDS011;918;50.796;6.772;2023-06-19T00:58:21;7.30;;;6.73;;
1837;SDS011;918;50.796;6.772;2023-06-19T01:00:47;7.33;;;6.83;;
1837;SDS011;918;50.796;6.772;2023-06-19T01:03:13;7.03;;;6.53;;
1837;SDS011;918;50.796;6.772;2023-06-19T01:05:38;7.40;;;6.30;;
1837;SDS011;918;50.796;6.772;2023-06-19T01:08:16;7.67;;;7.17;;
1837;SDS011;918;50.796;6.772;2023-06-19T01:10:49;7.13;;;6.63;;
1837;SDS011;918;50.796;6.772;2023-06-19T01:13:20;7.20;;;6.80;;
1837;SDS011;918;50.796;6.772;2023-06-19T01:15:48;7.33;;;6.80;;
1837;SDS011;918;50.796;6.772;2023-06-19T01:18:14;7.20;;;6.80;;
1837;SDS011;918;50.796;6.772;2023-06-19T01:20:40;7.00;;;6.50;;
1837;SDS011;918;50.796;6.772;2023-06-19T01:23:09;7.13;;;6.63;;
1837;SDS011;918;50.796;6.772;2023-06-19T01:25:36;7.03;;;6.50;;
1837;SDS011;918;50.796;6.772;2023-06-19T01:28:02;6.63;;;5.93;;
1837;SDS011;918;50.796;6.772;2023-06-19T01:30:29;7.03;;;6.53;;
1837;SDS011;918;50.796;6.772;2023-06-19T01:33:14;6.60;;;6.20;;
1837;SDS011;918;50.796;6.772;2023-06-19T01:35:42;7.23;;;6.73;;
1837;SDS011;918;50.796;6.772;2023-06-19T01:38:07;7.03;;;6.53;;
1837;SDS011;918;50.796;6.772;2023-06-19T01:40:33;6.90;;;6.40;;
1837;SDS011;918;50.796;6.772;2023-06-19T01:42:59;7.00;;;6.50;;
1837;SDS011;918;50.796;6.772;2023-06-19T01:45:26;6.97;;;6.50;;
1837;SDS011;918;50.796;6.772;2023-06-19T01:47:52;7.30;;;6.80;;
1837;SDS011;918;50.796;6.772;2023-06-19T01:50:18;6.73;;;6.30;;
1837;SDS011;918;50.796;6.772;2023-06-19T01:52:44;6.50;;;6.10;;
1837;SDS011;918;50.796;6.772;2023-06-19T01:55:09;6.90;;;6.30;;
1837;SDS011;918;50.796;6.772;2023-06-19T01:57:35;7.20;;;6.70;;
1837;SDS011;918;50.796;6.772;2023-06-19T02:00:01;7.00;;;6.50;;
1837;SDS011;918;50.796;6.772;2023-06-19T02:02:27;7.40;;;6.90;;
1837;SDS011;918;50.796;6.772;2023-06-19T02:04:52;7.47;;;6.83;;
1837;SDS011;918;50.796;6.772;2023-06-19T02:07:17;6.73;;;6.23;;
1837;SDS011;918;50.796;6.772;2023-06-19T02:09:43;7.97;;;7.37;;
1837;SDS011;918;50.796;6.772;2023-06-19T02:12:08;8.30;;;7.73;;
1837;SDS011;918;50.796;6.772;2023-06-19T02:14:33;6.33;;;5.93;;
1837;SDS011;918;50.796;6.772;2023-06-19T02:16:59;7.03;;;6.53;;
1837;SDS011;918;50.796;6.772;2023-06-19T02:19:24;7.13;;;6.60;;
1837;SDS011;918;50.796;6.772;2023-06-19T02:21:49;6.90;;;6.40;;
1837;SDS011;918;50.796;6.772;2023-06-19T02:24:14;7.33;;;6.83;;
1837;SDS011;918;50.796;6.772;2023-06-19T02:26:40;7.03;;;6.57;;
1837;SDS011;918;50.796;6.772;2023-06-19T02:29:05;8.50;;;7.10;;
1837;SDS011;918;50.796;6.772;2023-06-19T02:31:30;7.43;;;6.93;;
1837;SDS011;918;50.796;6.772;2023-06-19T02:33:56;7.20;;;6.77;;
1837;SDS011;918;50.796;6.772;2023-06-19T02:36:21;7.50;;;6.80;;
1837;SDS011;918;50.796;6.772;2023-06-19T02:38:46;8.07;;;7.37;;
1837;SDS011;918;50.796;6.772;2023-06-19T02:41:12;7.73;;;7.17;;
1837;SDS011;918;50.796;6.772;2023-06-19T02:43:39;7.10;;;6.60;;
1837;SDS011;918;50.796;6.772;2023-06-19T02:46:05;8.10;;;7.50;;
1837;SDS011;918;50.796;6.772;2023-06-19T02:48:30;7.53;;;7.03;;
1837;SDS011;918;50.796;6.772;2023-06-19T02:50:55;7.00;;;6.50;;
1837;SDS011;918;50.796;6.772;2023-06-19T02:53:21;7.20;;;6.67;;
1837;SDS011;918;50.796;6.772;2023-06-19T02:55:46;8.27;;;7.67;;
1837;SDS011;918;50.796;6.772;2023-06-19T02:58:11;7.80;;;7.20;;
1837;SDS011;918;50.796;6.772;2023-06-19T03:00:36;7.07;;;6.57;;
1837;SDS011;918;50.796;6.772;2023-06-19T03:03:01;7.47;;;6.90;;
1837;SDS011;918;50.796;6.772;2023-06-19T03:05:27;8.10;;;7.50;;
1837;SDS011;918;50.796;6.772;2023-06-19T03:07:52;8.67;;;7.93;;
1837;SDS011;918;50.796;6.772;2023-06-19T03:10:17;7.20;;;6.80;;
1837;SDS011;918;50.796;6.772;2023-06-19T03:12:43;7.83;;;7.33;;
1837;SDS011;918;50.796;6.772;2023-06-19T03:15:08;9.00;;;7.43;;
1837;SDS011;918;50.796;6.772;2023-06-19T03:17:36;8.57;;;7.97;;
1837;SDS011;918;50.796;6.772;2023-06-19T03:20:01;9.07;;;8.47;;
1837;SDS011;918;50.796;6.772;2023-06-19T03:22:27;8.63;;;8.03;;
1837;SDS011;918;50.796;6.772;2023-06-19T03:24:52;8.37;;;7.87;;
1837;SDS011;918;50.796;6.772;2023-06-19T03:27:18;8.37;;;7.77;;
1837;SDS011;918;50.796;6.772;2023-06-19T03:29:43;8.13;;;7.60;;
1837;SDS011;918;50.796;6.772;2023-06-19T03:32:08;7.97;;;7.37;;
1837;SDS011;918;50.796;6.772;2023-06-19T03:34:33;8.37;;;7.57;;
1837;SDS011;918;50.796;6.772;2023-06-19T03:36:59;7.80;;;7.10;;
1837;SDS011;918;50.796;6.772;2023-06-19T03:39:24;9.30;;;8.60;;
1837;SDS011;918;50.796;6.772;2023-06-19T03:41:49;8.80;;;8.20;;
1837;SDS011;918;50.796;6.772;2023-06-19T03:44:15;7.60;;;7.10;;
1837;SDS011;918;50.796;6.772;2023-06-19T03:46:40;8.90;;;8.30;;
1837;SDS011;918;50.796;6.772;2023-06-19T03:49:05;8.13;;;7.53;;
1837;SDS011;918;50.796;6.772;2023-06-19T03:51:31;8.23;;;7.63;;
1837;SDS011;918;50.796;6.772;2023-06-19T03:53:57;8.37;;;7.77;;
1837;SDS011;918;50.796;6.772;2023-06-19T03:56:24;8.40;;;7.73;;
1837;SDS011;918;50.796;6.772;2023-06-19T03:58:50;8.50;;;7.80;;
1837;SDS011;918;50.796;6.772;2023-06-19T04:01:15;7.00;;;6.50;;
1837;SDS011;918;50.796;6.772;2023-06-19T04:03:40;10.70;;;7.40;;
1837;SDS011;918;50.796;6.772;2023-06-19T04:06:05;8.40;;;7.60;;
1837;SDS011;918;50.796;6.772;2023-06-19T04:08:31;8.73;;;7.83;;
1837;SDS011;918;50.796;6.772;2023-06-19T04:10:56;9.53;;;7.63;;
1837;SDS011;918;50.796;6.772;2023-06-19T04:13:21;7.03;;;6.40;;
1837;SDS011;918;50.796;6.772;2023-06-19T04:15:47;8.00;;;6.40;;
1837;SDS011;918;50.796;6.772;2023-06-19T04:18:12;7.03;;;5.70;;
1837;SDS011;918;50.796;6.772;2023-06-19T04:20:37;6.03;;;5.63;;
1837;SDS011;918;50.796;6.772;2023-06-19T04:23:03;29.33;;;11.13;;
1837;SDS011;918;50.796;6.772;2023-06-19T04:25:28;34.23;;;12.40;;
1837;SDS011;918;50.796;6.772;2023-06-19T04:27:53;24.47;;;11.40;;
1837;SDS011;918;50.796;6.772;2023-06-19T04:30:18;26.57;;;11.60;;
1837;SDS011;918;50.796;6.772;2023-06-19T04:32:46;31.60;;;11.57;;
1837;SDS011;918;50.796;6.772;2023-06-19T04:35:11;31.80;;;11.30;;
1837;SDS011;918;50.796;6.772;2023-06-19T04:37:37;5.70;;;5.20;;
1837;SDS011;918;50.796;6.772;2023-06-19T04:40:02;6.30;;;5.40;;
1837;SDS011;918;50.796;6.772;2023-06-19T04:42:28;6.50;;;6.03;;
1837;SDS011;918;50.796;6.772;2023-06-19T04:44:54;6.60;;;6.00;;
1837;SDS011;918;50.796;6.772;2023-06-19T04:47:22;5.70;;;5.40;;
1837;SDS011;918;50.796;6.772;2023-06-19T04:49:48;6.50;;;6.00;;
1837;SDS011;918;50.796;6.772;2023-06-19T04:52:13;6.47;;;6.07;;
1837;SDS011;918;50.796;6.772;2023-06-19T04:54:38;5.80;;;5.30;;
1837;SDS011;918;50.796;6.772;2023-06-19T04:57:04;5.57;;;5.17;;
1837;SDS011;918;50.796;6.772;2023-06-19T04:59:29;6.17;;;5.77;;
1837;SDS011;918;50.796;6.772;2023-06-19T05:01:55;5.40;;;5.10;;
1837;SDS011;918;50.796;6.772;2023-06-19T05:04:21;5.87;;;5.47;;
1837;SDS011;918;50.796;6.772;2023-06-19T05:06:47;7.13;;;5.87;;
1837;SDS011;918;50.796;6.772;2023-06-19T05:09:13;6.17;;;5.33;;
1837;SDS011;918;50.796;6.772;2023-06-19T05:11:38;5.60;;;5.20;;
1837;SDS011;918;50.796;6.772;2023-06-19T05:14:03;5.90;;;5.50;;
1837;SDS011;918;50.796;6.772;2023-06-19T05:16:29;6.60;;;6.13;;
1837;SDS011;918;50.796;6.772;2023-06-19T05:18:54;5.90;;;5.50;;
1837;SDS011;918;50.796;6.772;2023-06-19T05:21:19;5.50;;;5.10;;
1837;SDS011;918;50.796;6.772;2023-06-19T05:23:45;5.83;;;5.40;;
1837;SDS011;918;50.796;6.772;2023-06-19T05:26:15;6.00;;;5.50;;
1837;SDS011;918;50.796;6.772;2023-06-19T05:28:40;4.80;;;4.50;;
1837;SDS011;918;50.796;6.772;2023-06-19T05:31:05;5.13;;;4.77;;
1837;SDS011;918;50.796;6.772;2023-06-19T05:33:33;4.63;;;4.23;;
1837;SDS011;918;50.796;6.772;2023-06-19T05:35:58;5.37;;;4.97;;
1837;SDS011;918;50.796;6.772;2023-06-19T05:38:23;5.27;;;4.77;;
1837;SDS011;918;50.796;6.772;2023-06-19T05:40:50;4.77;;;4.30;;
1837;SDS011;918;50.796;6.772;2023-06-19T05:43:16;4.73;;;4.43;;
1837;SDS011;918;50.796;6.772;2023-06-19T05:45:43;4.50;;;4.20;;
1837;SDS011;918;50.796;6.772;2023-06-19T05:48:08;4.53;;;4.23;;
1837;SDS011;918;50.796;6.772;2023-06-19T05:50:34;4.37;;;4.07;;
1837;SDS011;918;50.796;6.772;2023-06-19T05:52:59;3.80;;;3.60;;
1837;SDS011;918;50.796;6.772;2023-06-19T05:55:24;3.77;;;3.57;;
1837;SDS011;918;50.796;6.772;2023-06-19T05:57:53;3.57;;;3.37;;
1837;SDS011;918;50.796;6.772;2023-06-19T06:00:19;3.30;;;2.90;;
1837;SDS011;918;50.796;6.772;2023-06-19T06:02:44;3.50;;;3.30;;
1837;SDS011;918;50.796;6.772;2023-06-19T06:05:09;3.00;;;2.80;;
1837;SDS011;918;50.796;6.772;2023-06-19T06:07:35;3.37;;;3.10;;
1837;SDS011;918;50.796;6.772;2023-06-19T06:10:00;3.47;;;3.00;;
1837;SDS011;918;50.796;6.772;2023-06-19T06:12:26;3.30;;;3.10;;
1837;SDS011;918;50.796;6.772;2023-06-19T06:14:51;3.23;;;3.03;;
1837;SDS011;918;50.796;6.772;2023-06-19T06:17:16;3.00;;;2.80;;
1837;SDS011;918;50.796;6.772;2023-06-19T06:19:41;4.07;;;3.10;;
1837;SDS011;918;50.796;6.772;2023-06-19T06:22:06;3.00;;;2.90;;
1837;SDS011;918;50.796;6.772;2023-06-19T06:24:32;3.00;;;2.90;;
1837;SDS011;918;50.796;6.772;2023-06-19T06:26:57;3.30;;;3.10;;
1837;SDS011;918;50.796;6.772;2023-06-19T06:29:23;3.47;;;3.27;;
1837;SDS011;918;50.796;6.772;2023-06-19T06:31:49;3.27;;;2.93;;
1837;SDS011;918;50.796;6.772;2023-06-19T06:34:17;2.90;;;2.70;;
1837;SDS011;918;50.796;6.772;2023-06-19T06:36:42;3.17;;;2.97;;
1837;SDS011;918;50.796;6.772;2023-06-19T06:39:07;2.83;;;2.27;;
1837;SDS011;918;50.796;6.772;2023-06-19T06:41:33;2.60;;;2.40;;
1837;SDS011;918;50.796;6.772;2023-06-19T06:43:58;2.70;;;2.47;;
1837;SDS011;918;50.796;6.772;2023-06-19T06:46:23;2.77;;;2.50;;
1837;SDS011;918;50.796;6.772;2023-06-19T06:48:49;3.70;;;2.20;;
1837;SDS011;918;50.796;6.772;2023-06-19T06:51:15;2.60;;;2.20;;
1837;SDS011;918;50.796;6.772;2023-06-19T06:53:40;2.20;;;2.00;;
1837;SDS011;918;50.796;6.772;2023-06-19T06:56:05;3.47;;;2.10;;
1837;SDS011;918;50.796;6.772;2023-06-19T06:58:30;1.80;;;1.70;;
1837;SDS011;918;50.796;6.772;2023-06-19T07:00:56;1.73;;;1.33;;
1837;SDS011;918;50.796;6.772;2023-06-19T07:03:21;1.77;;;1.60;;
1837;SDS011;918;50.796;6.772;2023-06-19T07:05:47;1.40;;;1.20;;
1837;SDS011;918;50.796;6.772;2023-06-19T07:08:13;2.53;;;1.53;;
1837;SDS011;918;50.796;6.772;2023-06-19T07:10:38;1.60;;;1.50;;
1837;SDS011;918;50.796;6.772;2023-06-19T07:13:03;1.80;;;1.10;;
1837;SDS011;918;50.796;6.772;2023-06-19T07:15:29;1.20;;;1.10;;
1837;SDS011;918;50.796;6.772;2023-06-19T07:17:54;1.13;;;1.13;;
1837;SDS011;918;50.796;6.772;2023-06-19T07:20:19;1.40;;;1.30;;
1837;SDS011;918;50.796;6.772;2023-06-19T07:22:44;1.20;;;1.20;;
1837;SDS011;918;50.796;6.772;2023-06-19T07:25:11;1.53;;;1.10;;
1837;SDS011;918;50.796;6.772;2023-06-19T07:27:37;1.77;;;1.50;;
1837;SDS011;918;50.796;6.772;2023-06-19T07:30:02;1.30;;;1.30;;
1837;SDS011;918;50.796;6.772;2023-06-19T07:32:28;5.13;;;1.73;;
1837;SDS011;918;50.796;6.772;2023-06-19T07:34:53;1.67;;;1.50;;
1837;SDS011;918;50.796;6.772;2023-06-19T07:37:18;1.80;;;1.70;;
1837;SDS011;918;50.796;6.772;2023-06-19T07:39:44;2.20;;;1.90;;
1837;SDS011;918;50.796;6.772;2023-06-19T07:42:10;2.00;;;1.50;;
1837;SDS011;918;50.796;6.772;2023-06-19T07:44:35;1.40;;;1.30;;
1837;SDS011;918;50.796;6.772;2023-06-19T07:47:01;2.20;;;1.60;;
1837;SDS011;918;50.796;6.772;2023-06-19T07:49:26;1.00;;;1.00;;
1837;SDS011;918;50.796;6.772;2023-06-19T07:51:51;1.90;;;1.80;;
1837;SDS011;918;50.796;6.772;2023-06-19T07:54:17;1.63;;;1.53;;
1837;SDS011;918;50.796;6.772;2023-06-19T07:56:42;1.40;;;1.40;;
1837;SDS011;918;50.796;6.772;2023-06-19T07:59:07;2.73;;;1.70;;
1837;SDS011;918;50.796;6.772;2023-06-19T08:01:32;1.83;;;1.70;;
1837;SDS011;918;50.796;6.772;2023-06-19T08:03:57;2.30;;;2.20;;
1837;SDS011;918;50.796;6.772;2023-06-19T08:06:23;1.50;;;1.50;;
1837;SDS011;918;50.796;6.772;2023-06-19T08:08:48;3.33;;;1.57;;
1837;SDS011;918;50.796;6.772;2023-06-19T08:11:13;1.50;;;1.40;;
1837;SDS011;918;50.796;6.772;2023-06-19T08:13:39;1.60;;;1.50;;
1837;SDS011;918;50.796;6.772;2023-06-19T08:16:04;1.77;;;1.63;;
1837;SDS011;918;50.796;6.772;2023-06-19T08:18:30;1.80;;;1.60;;
1837;SDS011;918;50.796;6.772;2023-06-19T08:20:55;2.07;;;1.97;;
1837;SDS011;918;50.796;6.772;2023-06-19T08:23:20;1.60;;;1.50;;
1837;SDS011;918;50.796;6.772;2023-06-19T08:25:45;2.00;;;1.70;;
1837;SDS011;918;50.796;6.772;2023-06-19T08:28:10;1.70;;;1.60;;
1837;SDS011;918;50.796;6.772;2023-06-19T08:30:36;2.13;;;1.70;;
1837;SDS011;918;50.796;6.772;2023-06-19T08:33:01;1.80;;;1.70;;
1837;SDS011;918;50.796;6.772;2023-06-19T08:35:26;1.60;;;1.50;;
1837;SDS011;918;50.796;6.772;2023-06-19T08:37:51;2.60;;;1.80;;
1837;SDS011;918;50.796;6.772;2023-06-19T08:40:17;2.90;;;1.50;;
1837;SDS011;918;50.796;6.772;2023-06-19T08:42:44;1.97;;;1.87;;
1837;SDS011;918;50.796;6.772;2023-06-19T08:45:09;1.90;;;1.80;;
1837;SDS011;918;50.796;6.772;2023-06-19T08:47:35;2.30;;;2.10;;
1837;SDS011;918;50.796;6.772;2023-06-19T08:50:00;1.83;;;1.73;;
1837;SDS011;918;50.796;6.772;2023-06-19T08:52:25;1.90;;;1.80;;
1837;SDS011;918;50.796;6.772;2023-06-19T08:54:51;1.60;;;1.50;;
1837;SDS011;918;50.796;6.772;2023-06-19T08:57:16;1.93;;;1.83;;
1837;SDS011;918;50.796;6.772;2023-06-19T08:59:51;2.00;;;1.90;;
1837;SDS011;918;50.796;6.772;2023-06-19T09:02:16;2.00;;;1.90;;
1837;SDS011;918;50.796;6.772;2023-06-19T09:04:42;1.97;;;1.77;;
1837;SDS011;918;50.796;6.772;2023-06-19T09:07:07;2.27;;;2.17;;
1837;SDS011;918;50.796;6.772;2023-06-19T09:09:33;2.27;;;2.17;;
1837;SDS011;918;50.796;6.772;2023-06-19T09:12:05;2.27;;;2.13;;
1837;SDS011;918;50.796;6.772;2023-06-19T09:14:32;2.57;;;2.47;;
1837;SDS011;918;50.796;6.772;2023-06-19T09:16:58;2.50;;;2.30;;
1837;SDS011;918;50.796;6.772;2023-06-19T09:19:23;2.27;;;2.10;;
1837;SDS011;918;50.796;6.772;2023-06-19T09:21:49;2.40;;;2.30;;
1837;SDS011;918;50.796;6.772;2023-06-19T09:24:14;2.93;;;2.73;;
1837;SDS011;918;50.796;6.772;2023-06-19T09:26:40;2.33;;;2.23;;
1837;SDS011;918;50.796;6.772;2023-06-19T09:29:12;2.40;;;2.30;;
1837;SDS011;918;50.796;6.772;2023-06-19T09:31:38;2.63;;;2.17;;
1837;SDS011;918;50.796;6.772;2023-06-19T09:34:04;2.33;;;2.23;;
1837;SDS011;918;50.796;6.772;2023-06-19T09:36:30;3.00;;;2.53;;
1837;SDS011;918;50.796;6.772;2023-06-19T09:38:56;2.50;;;2.40;;
1837;SDS011;918;50.796;6.772;2023-06-19T09:41:22;4.20;;;3.60;;
1837;SDS011;918;50.796;6.772;2023-06-19T09:43:49;3.17;;;2.43;;
1837;SDS011;918;50.796;6.772;2023-06-19T09:46:14;2.67;;;2.47;;
1837;SDS011;918;50.796;6.772;2023-06-19T09:48:43;2.53;;;2.33;;
1837;SDS011;918;50.796;6.772;2023-06-19T09:51:10;3.50;;;3.03;;
1837;SDS011;918;50.796;6.772;2023-06-19T09:53:42;2.97;;;2.77;;
1837;SDS011;918;50.796;6.772;2023-06-19T09:56:11;2.90;;;2.70;;
1837;SDS011;918;50.796;6.772;2023-06-19T09:58:37;3.00;;;2.80;;
1837;SDS011;918;50.796;6.772;2023-06-19T10:01:04;3.10;;;2.90;;
1837;SDS011;918;50.796;6.772;2023-06-19T10:03:30;2.73;;;2.63;;
1837;SDS011;918;50.796;6.772;2023-06-19T10:06:02;2.70;;;2.60;;
1837;SDS011;918;50.796;6.772;2023-06-19T10:08:37;2.97;;;2.77;;
1837;SDS011;918;50.796;6.772;2023-06-19T10:11:04;2.80;;;2.60;;
1837;SDS011;918;50.796;6.772;2023-06-19T10:13:33;3.50;;;3.20;;
1837;SDS011;918;50.796;6.772;2023-06-19T10:15:59;3.20;;;2.80;;
1837;SDS011;918;50.796;6.772;2023-06-19T10:18:25;3.20;;;2.90;;
1837;SDS011;918;50.796;6.772;2023-06-19T10:20:51;3.10;;;2.90;;
1837;SDS011;918;50.796;6.772;2023-06-19T10:23:18;3.43;;;3.23;;
1837;SDS011;918;50.796;6.772;2023-06-19T10:25:46;2.70;;;2.50;;
1837;SDS011;918;50.796;6.772;2023-06-19T10:28:23;3.33;;;3.13;;
1837;SDS011;918;50.796;6.772;2023-06-19T10:33:28;3.20;;;2.97;;
1837;SDS011;918;50.796;6.772;2023-06-19T10:35:56;3.27;;;2.90;;
1837;SDS011;918;50.796;6.772;2023-06-19T10:38:22;3.43;;;3.10;;
1837;SDS011;918;50.796;6.772;2023-06-19T10:40:48;2.80;;;2.70;;
1837;SDS011;918;50.796;6.772;2023-06-19T10:43:19;3.63;;;3.33;;
1837;SDS011;918;50.796;6.772;2023-06-19T10:45:45;3.33;;;3.13;;
1837;SDS011;918;50.796;6.772;2023-06-19T10:48:10;3.27;;;2.97;;
1837;SDS011;918;50.796;6.772;2023-06-19T10:50:37;3.50;;;3.23;;
1837;SDS011;918;50.796;6.772;2023-06-19T10:53:03;3.30;;;3.10;;
1837;SDS011;918;50.796;6.772;2023-06-19T10:55:29;3.57;;;3.23;;
1837;SDS011;918;50.796;6.772;2023-06-19T10:57:54;3.53;;;3.10;;
1837;SDS011;918;50.796;6.772;2023-06-19T11:00:24;3.30;;;3.10;;
1837;SDS011;918;50.796;6.772;2023-06-19T11:02:52;3.30;;;3.10;;
1837;SDS011;918;50.796;6.772;2023-06-19T11:05:21;3.43;;;3.23;;
1837;SDS011;918;50.796;6.772;2023-06-19T11:07:50;3.50;;;3.20;;
1837;SDS011;918;50.796;6.772;2023-06-19T11:10:20;3.40;;;3.20;;
1837;SDS011;918;50.796;6.772;2023-06-19T11:12:47;3.33;;;3.13;;
1837;SDS011;918;50.796;6.772;2023-06-19T11:15:13;3.23;;;3.03;;
1837;SDS011;918;50.796;6.772;2023-06-19T11:17:38;3.47;;;3.23;;
1837;SDS011;918;50.796;6.772;2023-06-19T11:20:03;3.20;;;3.00;;
1837;SDS011;918;50.796;6.772;2023-06-19T11:22:37;3.30;;;3.10;;
1837;SDS011;918;50.796;6.772;2023-06-19T11:25:03;3.60;;;3.13;;
1837;SDS011;918;50.796;6.772;2023-06-19T11:27:30;3.60;;;3.30;;
1837;SDS011;918;50.796;6.772;2023-06-19T11:29:55;4.03;;;3.73;;
1837;SDS011;918;50.796;6.772;2023-06-19T11:32:23;4.50;;;3.23;;
1837;SDS011;918;50.796;6.772;2023-06-19T11:34:49;4.17;;;3.87;;
1837;SDS011;918;50.796;6.772;2023-06-19T11:37:16;3.80;;;3.60;;
1837;SDS011;918;50.796;6.772;2023-06-19T11:39:46;3.70;;;3.40;;
1837;SDS011;918;50.796;6.772;2023-06-19T11:42:12;3.80;;;3.50;;
1837;SDS011;918;50.796;6.772;2023-06-19T11:44:59;3.33;;;3.13;;
1837;SDS011;918;50.796;6.772;2023-06-19T11:47:31;3.67;;;3.37;;
1837;SDS011;918;50.796;6.772;2023-06-19T11:49:56;3.77;;;3.30;;
1837;SDS011;918;50.796;6.772;2023-06-19T11:52:22;3.57;;;3.27;;
1837;SDS011;918;50.796;6.772;2023-06-19T11:54:47;4.03;;;3.73;;
1837;SDS011;918;50.796;6.772;2023-06-19T11:57:13;3.87;;;3.67;;
1837;SDS011;918;50.796;6.772;2023-06-19T11:59:38;3.60;;;3.30;;
1837;SDS011;918;50.796;6.772;2023-06-19T12:02:05;3.90;;;3.60;;
1837;SDS011;918;50.796;6.772;2023-06-19T12:04:30;3.57;;;3.30;;
1837;SDS011;918;50.796;6.772;2023-06-19T12:06:55;3.33;;;3.03;;
1837;SDS011;918;50.796;6.772;2023-06-19T12:09:21;7.00;;;4.53;;
1837;SDS011;918;50.796;6.772;2023-06-19T12:11:46;4.00;;;3.70;;
1837;SDS011;918;50.796;6.772;2023-06-19T12:14:11;3.70;;;3.50;;
1837;SDS011;918;50.796;6.772;2023-06-19T12:16:38;3.73;;;3.43;;
1837;SDS011;918;50.796;6.772;2023-06-19T12:19:03;4.43;;;4.13;;
1837;SDS011;918;50.796;6.772;2023-06-19T12:21:28;3.77;;;3.50;;
1837;SDS011;918;50.796;6.772;2023-06-19T12:23:53;3.73;;;3.43;;
1837;SDS011;918;50.796;6.772;2023-06-19T12:26:19;3.60;;;3.40;;
1837;SDS011;918;50.796;6.772;2023-06-19T12:28:44;3.37;;;3.17;;
1837;SDS011;918;50.796;6.772;2023-06-19T12:31:09;5.03;;;3.10;;
1837;SDS011;918;50.796;6.772;2023-06-19T12:33:35;3.43;;;3.23;;
1837;SDS011;918;50.796;6.772;2023-06-19T12:36:02;3.20;;;3.00;;
1837;SDS011;918;50.796;6.772;2023-06-19T12:38:27;4.20;;;3.90;;
1837;SDS011;918;50.796;6.772;2023-06-19T12:40:52;3.53;;;3.33;;
1837;SDS011;918;50.796;6.772;2023-06-19T12:43:17;3.50;;;3.30;;
1837;SDS011;918;50.796;6.772;2023-06-19T12:45:43;3.53;;;3.23;;
1837;SDS011;918;50.796;6.772;2023-06-19T12:48:09;3.80;;;3.50;;
1837;SDS011;918;50.796;6.772;2023-06-19T12:50:35;4.00;;;3.70;;
1837;SDS011;918;50.796;6.772;2023-06-19T12:53:00;3.33;;;3.13;;
1837;SDS011;918;50.796;6.772;2023-06-19T12:55:26;3.20;;;2.97;;
1837;SDS011;918;50.796;6.772;2023-06-19T12:57:51;3.70;;;3.40;;
1837;SDS011;918;50.796;6.772;2023-06-19T13:00:16;4.40;;;4.10;;
1837;SDS011;918;50.796;6.772;2023-06-19T13:02:41;3.33;;;3.13;;
1837;SDS011;918;50.796;6.772;2023-06-19T13:05:08;3.67;;;3.47;;
1837;SDS011;918;50.796;6.772;2023-06-19T13:07:34;3.90;;;3.60;;
1837;SDS011;918;50.796;6.772;2023-06-19T13:09:59;3.93;;;3.50;;
1837;SDS011;918;50.796;6.772;2023-06-19T13:12:24;3.90;;;3.60;;
1837;SDS011;918;50.796;6.772;2023-06-19T13:14:49;4.10;;;3.77;;
1837;SDS011;918;50.796;6.772;2023-06-19T13:17:15;3.93;;;3.47;;
1837;SDS011;918;50.796;6.772;2023-06-19T13:19:40;3.60;;;3.40;;
1837;SDS011;918;50.796;6.772;2023-06-19T13:22:05;3.50;;;3.20;;
1837;SDS011;918;50.796;6.772;2023-06-19T13:24:31;4.23;;;3.40;;
1837;SDS011;918;50.796;6.772;2023-06-19T13:26:56;3.83;;;3.57;;
1837;SDS011;918;50.796;6.772;2023-06-19T13:29:21;3.57;;;3.27;;
1837;SDS011;918;50.796;6.772;2023-06-19T13:31:46;3.23;;;2.80;;
1837;SDS011;918;50.796;6.772;2023-06-19T13:34:12;3.53;;;3.23;;
1837;SDS011;918;50.796;6.772;2023-06-19T13:36:37;4.13;;;3.83;;
1837;SDS011;918;50.796;6.772;2023-06-19T13:39:03;3.87;;;3.57;;
1837;SDS011;918;50.796;6.772;2023-06-19T13:41:29;3.83;;;3.50;;
1837;SDS011;918;50.796;6.772;2023-06-19T13:43:57;3.70;;;3.40;;
1837;SDS011;918;50.796;6.772;2023-06-19T13:46:22;3.80;;;3.50;;
1837;SDS011;918;50.796;6.772;2023-06-19T13:48:48;3.60;;;3.40;;
1837;SDS011;918;50.796;6.772;2023-06-19T13:51:16;3.50;;;3.30;;
1837;SDS011;918;50.796;6.772;2023-06-19T13:53:45;3.97;;;3.67;;
1837;SDS011;918;50.796;6.772;2023-06-19T13:56:10;3.80;;;3.60;;
1837;SDS011;918;50.796;6.772;2023-06-19T13:58:36;3.30;;;3.10;;
1837;SDS011;918;50.796;6.772;2023-06-19T14:01:01;3.30;;;3.10;;
1837;SDS011;918;50.796;6.772;2023-06-19T14:03:27;3.63;;;3.20;;
1837;SDS011;918;50.796;6.772;2023-06-19T14:05:52;4.20;;;2.90;;
1837;SDS011;918;50.796;6.772;2023-06-19T14:08:17;3.70;;;3.40;;
1837;SDS011;918;50.796;6.772;2023-06-19T14:10:43;3.10;;;2.90;;
1837;SDS011;918;50.796;6.772;2023-06-19T14:13:08;4.13;;;3.27;;
1837;SDS011;918;50.796;6.772;2023-06-19T14:15:34;3.40;;;3.20;;
1837;SDS011;918;50.796;6.772;2023-06-19T14:17:59;3.20;;;3.00;;
1837;SDS011;918;50.796;6.772;2023-06-19T14:20:24;3.10;;;2.80;;
1837;SDS011;918;50.796;6.772;2023-06-19T14:22:50;3.80;;;3.50;;
1837;SDS011;918;50.796;6.772;2023-06-19T14:25:15;3.17;;;2.97;;
1837;SDS011;918;50.796;6.772;2023-06-19T14:27:40;4.07;;;3.67;;
1837;SDS011;918;50.796;6.772;2023-06-19T14:30:06;3.23;;;3.03;;
1837;SDS011;918;50.796;6.772;2023-06-19T14:32:33;3.00;;;2.80;;
1837;SDS011;918;50.796;6.772;2023-06-19T14:34:58;3.60;;;3.40;;
1837;SDS011;918;50.796;6.772;2023-06-19T14:37:23;3.47;;;3.27;;
1837;SDS011;918;50.796;6.772;2023-06-19T14:39:49;3.40;;;2.90;;
1837;SDS011;918;50.796;6.772;2023-06-19T14:42:14;3.40;;;3.10;;
1837;SDS011;918;50.796;6.772;2023-06-19T14:44:39;3.30;;;3.07;;
1837;SDS011;918;50.796;6.772;2023-06-19T14:47:05;3.43;;;3.20;;
1837;SDS011;918;50.796;6.772;2023-06-19T14:49:30;4.10;;;3.70;;
1837;SDS011;918;50.796;6.772;2023-06-19T14:51:55;3.90;;;3.60;;
1837;SDS011;918;50.796;6.772;2023-06-19T14:54:22;3.60;;;3.27;;
1837;SDS011;918;50.796;6.772;2023-06-19T14:56:47;3.10;;;2.90;;
1837;SDS011;918;50.796;6.772;2023-06-19T14:59:14;3.40;;;3.10;;
1837;SDS011;918;50.796;6.772;2023-06-19T15:01:39;3.50;;;3.30;;
1837;SDS011;918;50.796;6.772;2023-06-19T15:04:05;2.70;;;2.50;;
1837;SDS011;918;50.796;6.772;2023-06-19T15:06:30;3.70;;;3.23;;
1837;SDS011;918;50.796;6.772;2023-06-19T15:08:55;3.57;;;3.33;;
1837;SDS011;918;50.796;6.772;2023-06-19T15:11:21;3.80;;;3.40;;
1837;SDS011;918;50.796;6.772;2023-06-19T15:13:46;3.10;;;2.90;;
1837;SDS011;918;50.796;6.772;2023-06-19T15:16:11;3.90;;;3.70;;
1837;SDS011;918;50.796;6.772;2023-06-19T15:18:37;3.77;;;3.47;;
1837;SDS011;918;50.796;6.772;2023-06-19T15:21:03;5.03;;;3.27;;
1837;SDS011;918;50.796;6.772;2023-06-19T15:23:32;2.93;;;2.73;;